Aviation Digital Data Service (ADDS)

Output produced by METARs form (0657 UTC 26 September 2016)
found at http://aviationweather.gov/adds/metars/
 
KDAG 260650Z AUTO 20005KT 10SM CLR 21/M03 A3010 RMK AO2 SLP171 T02111033
KDAG 260520Z 2606/2706 VRB06KT P6SM SKC 
     FM261600 08012KT P6SM SKC 
     FM270100 VRB06KT P6SM FEW250
       
KEDW 260558Z AUTO 06009KT 10SM CLR 21/M09 A3011 RMK AO2 SLP175 T02141094 10318 20207 52013
KVCV 260635Z AUTO 00000KT 10SM CLR 22/M07 A3016 RMK AO2
KONT 260653Z 12005KT 10SM CLR 29/M06 A2999 RMK AO2 SLP130 T02891056
KONT 260520Z 2606/2712 VRB05KT P6SM SKC WS010/04022KT 
     FM261400 04011KT P6SM SKC 
     FM261700 04012G20KT P6SM SKC 
     FM262200 VRB05KT P6SM SKC
       
KNID 260556Z AUTO 23004KT 10SM CLR 19/M09 A3013 RMK AO2 SLP185 T01941089 10339 20194 53014 $
KSNA 260653Z AUTO 00000KT 10SM CLR 23/11 A2993 RMK AO2 SLP133 T02280106 $
KSNA 260520Z 2606/2706 25007KT P6SM SKC WS015/05020KT 
     FM261100 VRB04KT P6SM SKC WS015/09020KT 
     FM261700 VRB04KT P6SM SKC 
     FM261930 25010KT P6SM SKC 
     FM270200 VRB05KT P6SM SCT120
       
KSAN 260651Z 00000KT 10SM CLR 24/09 A2995 RMK AO2 SLP140 T02390089 $
KSAN 260520Z 2606/2712 VRB04KT P6SM SKC 
     FM260800 VRB04KT P6SM SKC WS015/09016KT 
     FM261500 VRB04KT P6SM SKC 
     FM262000 29011KT P6SM SCT120 
     FM270200 VRB04KT P6SM SCT120
       
KNXP 260556Z AUTO 26011KT 10SM CLR 22/M03 A3016 RMK AO2 SLP181 T02221028 10311 20217 50007
TAF KNXP 2603/2703 VRB06KT 9999 SKC QNH3008INS 
     TEMPO 2617/2623 08012G20KT AUTOMATED SENSOR METWATCH 2603 TIL 2615 T18/2613Z T33/2623Z
       
KPSP 260653Z AUTO 25007KT 10SM CLR 29/01 A2998 RMK AO2 SLP147 T02890006 TSNO
KPSP 260520Z 2606/2706 33008KT P6SM SKC WS015/03020KT 
     FM260800 VRB06KT P6SM SKC
       
KLAX 260653Z 06004KT 10SM CLR 26/09 A2993 RMK AO2 SLP131 T02560089
KLAX 260539Z 2606/2712 VRB03KT P6SM SKC 
     FM260900 07006KT P6SM SKC WS010/07025KT 
     FM261900 25007KT P6SM SKC 
     FM262100 26014KT P6SM SKC 
     FM270300 26007KT P6SM SKC 
     FM270900 VRB03KT P6SM SKC
       
KCNO 260653Z AUTO 03004KT 9SM CLR 29/M04 A2999 RMK AO2 SLP145 T02891039
KSMO 260651Z AUTO 35003KT 10SM CLR 24/07 A2994 RMK AO2 SLP134 T02390067
KLGB 260653Z AUTO 00000KT 10SM CLR 23/08 A2993 RMK AO2 SLP134 T02330083 TSNO
KLGB 260539Z 2606/2706 VRB03KT P6SM SKC WS010/07025KT 
     FM262100 28012KT P6SM SKC 
     FM270300 VRB03KT P6SM SKC
       
KVNY 260651Z AUTO 14003KT 10SM CLR 23/M03 A2997 RMK AO2 SLP139 T02331028
KVNY 260539Z 2606/2706 36012KT P6SM SKC WS010/05030KT 
     FM261500 01015G25KT P6SM SKC WS010/07030KT 
     FM261900 03012KT P6SM SKC 
     FM270100 VRB03KT P6SM SKC
       
KBUR 260653Z 35004KT 10SM CLR 26/01 A2997 RMK AO2 SLP133 T02610006
KBUR 260539Z 2606/2706 VRB03KT P6SM SKC WS015/07025KT 
     FM261600 04010KT P6SM SKC 
     FM262100 17008KT P6SM SKC 
     FM270300 VRB03KT P6SM SKC
       
KBFL 260654Z AUTO 00000KT 10SM CLR 24/04 A2999 RMK AO2 SLP149 T02390039 TSNO $
KBFL 260520Z 2606/2706 VRB04KT P6SM SKC 
     TEMPO 2621/2701 30010KT
       
KPMD 260653Z AUTO 04008KT 10SM CLR 21/M06 A3012 RMK AO2 SLP173 T02111056
KPMD 260539Z 2606/2706 VRB03KT P6SM SKC 
     FM261800 07012G18KT P6SM SKC 
     FM262300 07008KT P6SM SKC 
     FM270200 14007KT P6SM SKC
       
KOXR 260651Z AUTO 04003KT 10SM CLR 18/13 A2993 RMK AO2 SLP132 T01780128
KOXR 260539Z 2606/2706 06006KT P6SM SKC 
     FM261300 07018G25KT P6SM SKC 
     FM262100 22012KT P6SM SKC 
     FM270300 VRB03KT P6SM SKC
       
KWJF 260556Z 01007KT 10SM CLR 19/M09 A3012 RMK AO2 SLP183 T01891089 10317 20172 51008
KWJF 260539Z 2606/2706 VRB03KT P6SM SKC 
     FM261800 07012G18KT P6SM SKC 
     FM262300 07007KT P6SM SKC 
     FM270300 14006KT P6SM SKC
       
KCMA 260555Z 26004KT 10SM CLR 19/12 A2993 RMK AO2 SLP144 T01890117 10328 20189 53001
KFAT 260653Z 01003KT 10SM CLR 23/12 A2999 RMK AO2 SLP150 T02280122 $
KFAT 260520Z 2606/2706 VRB04KT P6SM SKC
       
KEED 260556Z AUTO 36012KT 10SM CLR 30/M01 A3002 RMK AO2 SLP133 T03001006 10344 20300 50011 $
KEED 260520Z 2606/2706 31010KT P6SM SKC 
     FM261400 01011KT P6SM SKC 
     FM261900 VRB06KT P6SM FEW250 
     FM270400 16008KT P6SM BKN250
       
KLSV 260558Z AUTO 02011KT 10SM CLR 22/M01 A3015 RMK AO2 SLP192 T02211010 10313 20219 51010 $
TAF AMD KLSV 260148Z 2601/2705 01012KT 9999 SKC QNH3007INS 
     BECMG 2603/2604 04012KT 9999 SKC QNH3008INS 
     BECMG 2700/2701 30009KT 9999 SKC QNH3002INS TX33/2623Z TN17/2612Z
       
KLAS 260556Z 08010KT 10SM CLR 26/M03 A3016 RMK AO2 SLP192 T02561033 10311 20256 51010
KLAS 260520Z 2606/2706 02010KT P6SM SKC 
     FM260730 VRB06KT P6SM SKC 
     FM261700 05006KT P6SM SKC 
     FM270300 VRB06KT P6SM FEW250
       
KHII 260630Z AUTO 01009KT 10SM CLR 29/01 A2999 RMK AO2
KIFP 260635Z AUTO 03009KT 10SM CLR 28/00 A3002 RMK AO2
KIFP 260520Z 2606/2706 02011KT P6SM SKC 
     FM270300 VRB06KT P6SM SCT250